createdAt,value
2023-01-13T00:00:26.412Z,1.88
2023-01-13T00:02:54.185Z,1.81
2023-01-13T00:05:21.629Z,1.80
2023-01-13T00:07:49.662Z,1.94
2023-01-13T00:10:17.573Z,2.09
2023-01-13T00:12:45.075Z,2.13
2023-01-13T00:15:13.449Z,2.31
2023-01-13T00:17:41.247Z,2.49
2023-01-13T00:20:11.006Z,2.53
2023-01-13T00:22:38.471Z,2.50
2023-01-13T00:25:06.916Z,2.59
2023-01-13T00:27:34.423Z,2.54
2023-01-13T00:30:02.396Z,2.41
2023-01-13T00:32:30.171Z,2.13
2023-01-13T00:34:58.902Z,1.91
2023-01-13T00:37:26.457Z,1.72
2023-01-13T00:39:54.250Z,1.60
2023-01-13T00:42:40.433Z,1.48
2023-01-13T00:45:08.380Z,1.40
2023-01-13T00:47:35.866Z,1.57
2023-01-13T00:50:03.595Z,1.73
2023-01-13T00:52:33.331Z,1.65
2023-01-13T00:55:00.990Z,1.49
2023-01-13T00:57:28.436Z,1.54
2023-01-13T00:59:56.301Z,1.50
2023-01-13T01:02:23.859Z,1.61
2023-01-13T01:04:51.456Z,1.72
2023-01-13T01:07:19.206Z,1.75
2023-01-13T01:09:46.701Z,1.66
2023-01-13T01:12:14.335Z,1.56
2023-01-13T01:14:42.121Z,1.57
2023-01-13T01:17:09.588Z,1.72
2023-01-13T01:19:38.799Z,1.58
2023-01-13T01:22:06.570Z,1.72
2023-01-13T01:24:34.077Z,1.55
2023-01-13T01:27:01.540Z,1.39
2023-01-13T01:29:29.510Z,1.53
2023-01-13T01:31:58.670Z,1.63
2023-01-13T01:34:26.191Z,1.72
2023-01-13T01:36:54.560Z,1.58
2023-01-13T01:39:22.569Z,1.53
2023-01-13T01:42:08.849Z,1.51
2023-01-13T01:44:42.812Z,1.52
2023-01-13T01:47:14.988Z,1.45
2023-01-13T01:49:44.976Z,1.47
2023-01-13T01:52:17.810Z,1.39
2023-01-13T01:54:58.533Z,1.32
2023-01-13T01:57:41.855Z,1.43
2023-01-13T02:00:10.404Z,1.38
2023-01-13T02:02:41.346Z,1.32
2023-01-13T02:05:09.761Z,1.46
2023-01-13T02:07:40.089Z,1.50
2023-01-13T02:10:10.867Z,1.43
2023-01-13T02:12:40.528Z,1.39
2023-01-13T02:15:22.753Z,1.38
2023-01-13T02:17:59.262Z,1.37
2023-01-13T02:21:04.035Z,1.33
2023-01-13T02:24:02.484Z,1.29
2023-01-13T02:27:07.604Z,1.41
2023-01-13T02:29:53.770Z,1.49
2023-01-13T02:32:33.666Z,1.54
2023-01-13T02:35:12.483Z,1.67
2023-01-13T02:37:44.072Z,1.73
2023-01-13T02:40:45.787Z,1.61
2023-01-13T02:43:51.563Z,1.44
2023-01-13T02:46:28.123Z,1.35
2023-01-13T02:49:00.858Z,1.30
2023-01-13T02:51:31.429Z,1.15
2023-01-13T02:54:05.277Z,1.04
2023-01-13T02:56:37.301Z,0.94
2023-01-13T02:59:06.820Z,0.90
2023-01-13T03:01:34.692Z,0.94
2023-01-13T03:04:35.384Z,0.81
2023-01-13T03:07:13.525Z,0.84
2023-01-13T03:09:48.052Z,0.91
2023-01-13T03:12:33.833Z,1.05
2023-01-13T03:15:19.529Z,1.18
2023-01-13T03:18:09.273Z,1.29
2023-01-13T03:20:45.292Z,1.46
2023-01-13T03:23:15.633Z,1.35
2023-01-13T03:25:56.093Z,1.41
2023-01-13T03:28:33.108Z,1.35
2023-01-13T03:31:07.116Z,1.29
2023-01-13T03:33:41.206Z,1.23
2023-01-13T03:36:13.098Z,1.17
2023-01-13T03:38:50.421Z,1.20
2023-01-13T03:41:24.469Z,1.26
2023-01-13T03:44:22.228Z,1.23
2023-01-13T03:46:58.965Z,1.20
2023-01-13T03:49:42.855Z,1.23
2023-01-13T03:52:17.452Z,1.12
2023-01-13T03:54:54.298Z,1.09
2023-01-13T03:57:26.716Z,1.05
2023-01-13T03:59:59.438Z,0.95
2023-01-13T04:02:51.545Z,0.93
2023-01-13T04:05:19.814Z,0.98
2023-01-13T04:07:56.609Z,0.91
2023-01-13T04:10:37.342Z,1.04
2023-01-13T04:13:15.859Z,0.96
2023-01-13T04:15:46.061Z,0.95
2023-01-13T04:18:31.131Z,0.88
2023-01-13T04:21:01.308Z,0.83
2023-01-13T04:23:29.111Z,0.93
2023-01-13T04:25:57.294Z,0.95
2023-01-13T04:28:25.903Z,0.95
2023-01-13T04:30:53.581Z,0.96
2023-01-13T04:33:21.416Z,0.95
2023-01-13T04:35:49.253Z,0.96
2023-01-13T04:38:19.139Z,0.90
2023-01-13T04:40:47.000Z,0.88
2023-01-13T04:43:15.911Z,0.96
2023-01-13T04:45:44.111Z,0.99
2023-01-13T04:48:12.100Z,0.93
2023-01-13T04:50:40.891Z,1.01
2023-01-13T04:53:08.724Z,1.01
2023-01-13T04:55:36.362Z,0.99
2023-01-13T04:58:09.823Z,0.89
2023-01-13T05:00:37.990Z,0.99
2023-01-13T05:03:05.949Z,1.09
2023-01-13T05:05:33.469Z,1.25
2023-01-13T05:08:01.030Z,1.32
2023-01-13T05:10:29.001Z,1.49
2023-01-13T05:13:15.341Z,1.41
2023-01-13T05:16:02.060Z,1.24
2023-01-13T05:18:31.269Z,1.27
2023-01-13T05:20:59.139Z,1.30
2023-01-13T05:23:45.647Z,1.24
2023-01-13T05:26:13.596Z,1.27
2023-01-13T05:28:41.149Z,1.23
2023-01-13T05:31:08.872Z,1.29
2023-01-13T05:33:36.695Z,1.26
2023-01-13T05:36:04.339Z,1.27
2023-01-13T05:38:31.815Z,1.07
2023-01-13T05:41:19.238Z,0.91
2023-01-13T05:43:46.850Z,0.85
2023-01-13T05:46:17.452Z,0.88
2023-01-13T05:48:45.609Z,0.84
2023-01-13T05:51:13.954Z,0.77
2023-01-13T05:53:41.852Z,0.73
2023-01-13T05:56:10.733Z,0.72
2023-01-13T05:58:38.366Z,0.84
2023-01-13T06:01:09.096Z,0.78
2023-01-13T06:03:37.661Z,0.76
2023-01-13T06:06:05.344Z,0.81
2023-01-13T06:08:33.113Z,0.84
2023-01-13T06:11:00.862Z,0.91
2023-01-13T06:13:28.574Z,0.85
2023-01-13T06:15:57.858Z,0.86
2023-01-13T06:18:26.418Z,0.82
2023-01-13T06:20:53.900Z,0.80
2023-01-13T06:23:21.429Z,0.85
2023-01-13T06:26:14.548Z,0.92
2023-01-13T06:28:42.047Z,0.99
2023-01-13T06:31:11.006Z,1.06
2023-01-13T06:33:49.460Z,1.13
2023-01-13T06:36:22.573Z,1.20
2023-01-13T06:38:55.013Z,1.22
2023-01-13T06:41:43.665Z,1.24
2023-01-13T06:44:11.213Z,1.37
2023-01-13T06:46:39.199Z,1.39
2023-01-13T06:49:07.300Z,1.41
2023-01-13T06:51:35.054Z,1.46
2023-01-13T06:54:02.910Z,1.52
2023-01-13T06:56:31.604Z,1.55
2023-01-13T06:58:59.106Z,1.52
2023-01-13T07:01:27.047Z,1.56
2023-01-13T07:03:54.602Z,1.63
2023-01-13T07:06:22.148Z,1.62
2023-01-13T07:08:50.223Z,1.55
2023-01-13T07:11:17.704Z,1.54
2023-01-13T07:14:03.825Z,1.51
2023-01-13T07:16:31.748Z,1.54
2023-01-13T07:18:59.392Z,1.53
2023-01-13T07:21:26.931Z,1.54
2023-01-13T07:23:54.729Z,1.51
2023-01-13T07:26:22.265Z,1.44
2023-01-13T07:28:49.785Z,1.49
2023-01-13T07:31:21.175Z,1.52
2023-01-13T07:33:48.940Z,1.50
2023-01-13T07:36:16.780Z,1.59
2023-01-13T07:38:44.751Z,1.73
2023-01-13T07:41:32.806Z,1.80
2023-01-13T07:44:02.878Z,1.88
2023-01-13T07:46:30.771Z,1.86
2023-01-13T07:48:58.316Z,1.95
2023-01-13T07:51:26.121Z,2.05
2023-01-13T07:53:54.068Z,2.04
2023-01-13T07:56:21.860Z,2.06
2023-01-13T07:58:50.538Z,2.06
2023-01-13T08:01:19.183Z,2.06
2023-01-13T08:03:47.434Z,2.06
2023-01-13T08:06:15.200Z,2.10
2023-01-13T08:08:42.684Z,2.23
2023-01-13T08:11:10.639Z,2.24
2023-01-13T08:13:38.190Z,2.24
2023-01-13T08:16:11.384Z,2.35
2023-01-13T08:18:39.876Z,2.36
2023-01-13T08:21:10.495Z,2.42
2023-01-13T08:23:38.208Z,2.49
2023-01-13T08:26:09.515Z,2.61
2023-01-13T08:28:37.190Z,2.68
2023-01-13T08:31:07.470Z,2.78
2023-01-13T08:33:35.716Z,2.88
2023-01-13T08:36:08.194Z,3.00
2023-01-13T08:38:37.065Z,3.03
2023-01-13T08:41:12.062Z,3.06
2023-01-13T08:43:40.240Z,3.00
2023-01-13T08:46:08.137Z,2.96
2023-01-13T08:48:35.910Z,2.92
2023-01-13T08:51:06.444Z,2.78
2023-01-13T08:53:34.206Z,2.74
2023-01-13T08:56:01.828Z,2.86
2023-01-13T08:58:29.673Z,2.89
2023-01-13T09:00:57.489Z,2.89
2023-01-13T09:03:25.074Z,2.87
2023-01-13T09:05:52.815Z,2.87
2023-01-13T09:08:20.446Z,2.84
2023-01-13T09:10:47.982Z,2.86
2023-01-13T09:13:17.135Z,2.92
2023-01-13T09:15:45.930Z,2.97
2023-01-13T09:18:13.700Z,3.03
2023-01-13T09:20:41.896Z,3.10
2023-01-13T09:23:10.894Z,3.20
2023-01-13T09:25:39.108Z,3.26
2023-01-13T09:28:08.770Z,3.40
2023-01-13T09:30:37.877Z,3.43
2023-01-13T09:33:24.468Z,3.50
2023-01-13T09:35:52.345Z,3.50
2023-01-13T09:38:19.949Z,3.51
2023-01-13T09:40:49.083Z,3.54
2023-01-13T09:43:52.675Z,3.67
2023-01-13T09:46:47.087Z,3.70
2023-01-13T09:49:22.280Z,3.77
2023-01-13T09:51:53.245Z,3.86
2023-01-13T09:54:32.490Z,3.95
2023-01-13T09:57:00.996Z,4.04
2023-01-13T09:59:34.682Z,4.12
2023-01-13T10:02:27.219Z,4.19
2023-01-13T10:05:13.213Z,4.37
2023-01-13T10:08:05.567Z,4.62
2023-01-13T10:10:47.924Z,4.67
2023-01-13T10:13:27.966Z,4.76
2023-01-13T10:16:04.782Z,4.80
2023-01-13T10:18:44.658Z,5.04
2023-01-13T10:21:55.503Z,5.02
2023-01-13T10:24:47.400Z,5.11
2023-01-13T10:27:32.399Z,5.56
2023-01-13T10:29:59.994Z,5.33
2023-01-13T10:32:28.839Z,5.38
2023-01-13T10:34:59.078Z,5.26
2023-01-13T10:37:28.511Z,5.18
2023-01-13T10:40:00.607Z,5.34
2023-01-13T10:42:28.276Z,5.70
2023-01-13T10:45:01.224Z,6.17
2023-01-13T10:47:32.773Z,6.41
2023-01-13T10:50:09.740Z,6.41
2023-01-13T10:52:43.564Z,6.74
2023-01-13T10:55:33.246Z,7.11
2023-01-13T10:58:16.691Z,7.35
2023-01-13T11:00:46.033Z,7.50
2023-01-13T11:03:16.256Z,7.64
2023-01-13T11:05:56.047Z,7.47
2023-01-13T11:08:40.536Z,7.70
2023-01-13T11:11:27.403Z,7.77
2023-01-13T11:14:18.709Z,7.62
2023-01-13T11:16:53.983Z,7.92
2023-01-13T11:19:25.101Z,8.31
2023-01-13T11:22:16.038Z,8.45
2023-01-13T11:24:54.729Z,8.06
2023-01-13T11:27:34.664Z,7.75
2023-01-13T11:30:11.136Z,7.50
2023-01-13T11:33:10.062Z,7.37
2023-01-13T11:36:04.988Z,7.10
2023-01-13T11:38:54.610Z,6.91
2023-01-13T11:41:43.588Z,6.87
2023-01-13T11:44:34.260Z,6.81
2023-01-13T11:47:02.065Z,6.99
2023-01-13T11:49:32.841Z,6.97
2023-01-13T11:52:09.162Z,7.01
2023-01-13T11:55:04.670Z,7.00
2023-01-13T11:58:19.583Z,6.83
2023-01-13T12:01:14.446Z,6.75
2023-01-13T12:03:46.594Z,7.04
2023-01-13T12:06:24.886Z,7.26
2023-01-13T12:09:03.760Z,7.60
2023-01-13T12:11:59.745Z,7.82
2023-01-13T12:14:43.447Z,7.90
2023-01-13T12:17:26.166Z,7.82
2023-01-13T12:19:53.993Z,7.48
2023-01-13T12:22:31.876Z,7.61
2023-01-13T12:25:05.739Z,7.52
2023-01-13T12:27:48.007Z,7.45
2023-01-13T12:30:39.125Z,7.51
2023-01-13T12:33:32.756Z,7.57
2023-01-13T12:36:16.408Z,7.68
2023-01-13T12:38:53.092Z,7.71
2023-01-13T12:42:05.700Z,7.79
2023-01-13T12:44:33.196Z,7.85
2023-01-13T12:47:01.050Z,7.95
2023-01-13T12:49:33.567Z,7.77
2023-01-13T12:52:07.906Z,7.70
2023-01-13T12:54:41.459Z,7.83
2023-01-13T12:57:21.203Z,7.68
2023-01-13T13:00:00.954Z,7.52
2023-01-13T13:02:34.820Z,7.37
2023-01-13T13:05:14.639Z,7.45
2023-01-13T13:07:53.274Z,7.39
2023-01-13T13:10:30.289Z,7.17
2023-01-13T13:13:18.203Z,7.15
2023-01-13T13:15:47.998Z,7.20
2023-01-13T13:18:20.460Z,7.11
2023-01-13T13:21:11.646Z,7.00
2023-01-13T13:23:50.130Z,6.95
2023-01-13T13:26:31.055Z,6.91
2023-01-13T13:29:26.463Z,6.90
2023-01-13T13:32:12.805Z,6.79
2023-01-13T13:35:07.926Z,6.70
2023-01-13T13:38:32.862Z,6.68
2023-01-13T13:41:23.446Z,6.65
2023-01-13T13:44:09.421Z,6.60
2023-01-13T13:46:49.290Z,6.42
2023-01-13T13:49:35.124Z,6.36
2023-01-13T13:52:15.004Z,6.27
2023-01-13T13:54:47.706Z,6.22
2023-01-13T13:57:21.829Z,6.22
2023-01-13T13:59:58.805Z,6.22
2023-01-13T14:02:33.950Z,6.20
2023-01-13T14:05:18.000Z,6.20
2023-01-13T14:07:48.415Z,6.35
2023-01-13T14:10:26.627Z,6.41
2023-01-13T14:12:54.297Z,6.43
2023-01-13T14:15:28.395Z,6.48
2023-01-13T14:17:55.978Z,6.51
2023-01-13T14:20:24.056Z,6.58
2023-01-13T14:22:53.959Z,6.62
2023-01-13T14:25:33.973Z,6.57
2023-01-13T14:28:34.003Z,6.42
2023-01-13T14:31:02.170Z,6.53
2023-01-13T14:33:43.705Z,6.56
2023-01-13T14:36:20.521Z,6.58
2023-01-13T14:39:03.589Z,6.62
2023-01-13T14:41:34.077Z,6.62
2023-01-13T14:44:12.295Z,6.65
2023-01-13T14:46:45.646Z,6.65
2023-01-13T14:49:32.104Z,6.63
2023-01-13T14:52:23.368Z,6.63
2023-01-13T14:55:38.664Z,6.64
2023-01-13T14:58:28.709Z,6.70
2023-01-13T15:01:29.075Z,6.67
2023-01-13T15:04:17.340Z,6.62
2023-01-13T15:06:51.548Z,6.49
2023-01-13T15:09:28.929Z,6.44
2023-01-13T15:11:58.882Z,6.50
2023-01-13T15:14:34.865Z,6.46
2023-01-13T15:17:03.410Z,6.43
2023-01-13T15:19:31.053Z,6.43
2023-01-13T15:21:58.601Z,6.42
2023-01-13T15:24:26.476Z,6.35
2023-01-13T15:26:53.965Z,6.22
2023-01-13T15:29:22.910Z,6.21
2023-01-13T15:31:51.985Z,6.12
2023-01-13T15:34:19.529Z,6.11
2023-01-13T15:36:47.041Z,6.12
2023-01-13T15:39:14.933Z,6.10
2023-01-13T15:42:01.130Z,6.01
2023-01-13T15:44:47.550Z,5.96
2023-01-13T15:47:15.134Z,5.99
2023-01-13T15:49:44.395Z,6.00
2023-01-13T15:52:19.441Z,6.01
2023-01-13T15:54:47.374Z,5.99
2023-01-13T15:57:25.166Z,5.87
2023-01-13T15:59:56.671Z,5.86
2023-01-13T16:02:25.372Z,5.84
2023-01-13T16:04:54.560Z,5.83
2023-01-13T16:07:24.946Z,5.83
2023-01-13T16:09:53.391Z,5.77
2023-01-13T16:12:20.990Z,5.80
2023-01-13T16:14:48.681Z,5.77
2023-01-13T16:17:19.202Z,5.72
2023-01-13T16:19:47.778Z,5.76
2023-01-13T16:22:16.477Z,5.76
2023-01-13T16:24:44.707Z,5.76
2023-01-13T16:27:18.270Z,5.74
2023-01-13T16:29:48.466Z,5.76
2023-01-13T16:32:16.104Z,5.76
2023-01-13T16:34:44.005Z,5.71
2023-01-13T16:37:21.942Z,5.76
2023-01-13T16:39:50.647Z,5.71
2023-01-13T16:42:18.775Z,5.66
2023-01-13T16:44:48.362Z,5.55
2023-01-13T16:47:17.988Z,5.52
2023-01-13T16:49:46.040Z,5.49
2023-01-13T16:52:13.981Z,5.52
2023-01-13T16:54:41.433Z,5.48
2023-01-13T16:57:13.395Z,5.51
2023-01-13T16:59:40.876Z,5.52
2023-01-13T17:02:15.424Z,5.51
2023-01-13T17:04:43.482Z,5.48
2023-01-13T17:07:17.105Z,5.44
2023-01-13T17:09:44.704Z,5.41
2023-01-13T17:12:12.731Z,5.44
2023-01-13T17:14:40.313Z,5.46
2023-01-13T17:17:19.940Z,5.46
2023-01-13T17:19:47.748Z,5.43
2023-01-13T17:22:15.301Z,5.42
2023-01-13T17:24:43.156Z,5.40
2023-01-13T17:27:11.117Z,5.36
2023-01-13T17:29:38.872Z,5.37
2023-01-13T17:32:06.500Z,5.37
2023-01-13T17:34:34.434Z,5.37
2023-01-13T17:37:01.960Z,7.42
2023-01-13T17:39:29.617Z,8.89
2023-01-13T17:41:57.462Z,10.13
2023-01-13T17:44:25.054Z,9.29
2023-01-13T17:46:52.634Z,8.50
2023-01-13T17:49:21.896Z,7.80
2023-01-13T17:51:51.590Z,7.38
2023-01-13T17:54:19.749Z,7.07
2023-01-13T17:56:47.601Z,6.82
2023-01-13T17:59:17.511Z,6.67
2023-01-13T18:01:45.793Z,6.52
2023-01-13T18:04:16.774Z,6.40
2023-01-13T18:06:45.095Z,6.42
2023-01-13T18:09:12.778Z,6.32
2023-01-13T18:11:40.706Z,6.31
2023-01-13T18:14:09.873Z,6.21
2023-01-13T18:16:37.983Z,6.11
2023-01-13T18:19:24.527Z,6.06
2023-01-13T18:22:11.000Z,6.05
2023-01-13T18:24:57.712Z,6.06
2023-01-13T18:27:30.902Z,5.98
2023-01-13T18:30:00.409Z,5.88
2023-01-13T18:32:32.910Z,5.83
2023-01-13T18:35:06.818Z,5.82
2023-01-13T18:37:36.275Z,5.81
2023-01-13T18:40:06.171Z,5.75
2023-01-13T18:42:52.268Z,5.68
2023-01-13T18:45:31.717Z,5.63
2023-01-13T18:48:01.887Z,5.60
2023-01-13T18:50:30.040Z,5.64
2023-01-13T18:52:57.981Z,5.66
2023-01-13T18:55:25.872Z,5.68
2023-01-13T18:57:53.910Z,5.69
2023-01-13T19:00:22.650Z,5.72
2023-01-13T19:05:35.087Z,5.63
2023-01-13T19:08:03.380Z,5.49
2023-01-13T19:10:32.559Z,5.44
2023-01-13T19:13:01.665Z,5.34
2023-01-13T19:15:29.674Z,5.32
2023-01-13T19:17:57.326Z,5.26
2023-01-13T19:20:25.149Z,5.21
2023-01-13T19:22:54.550Z,5.16
2023-01-13T19:25:22.921Z,5.15
2023-01-13T19:43:43.527Z,5.84
2023-01-13T19:46:12.446Z,5.84
2023-01-13T19:48:47.003Z,5.16
2023-01-13T19:51:16.924Z,5.20
2023-01-13T19:53:44.466Z,5.24
2023-01-13T20:11:34.111Z,5.95
2023-01-13T20:14:02.281Z,5.94
2023-01-13T20:16:33.005Z,5.29
2023-01-13T20:19:00.592Z,5.26
2023-01-13T20:21:29.124Z,5.23
2023-01-13T20:23:56.979Z,5.20
2023-01-13T20:26:24.513Z,5.20
2023-01-13T20:28:52.321Z,5.05
2023-01-13T20:31:19.938Z,5.07
2023-01-13T20:33:49.963Z,5.09
2023-01-13T20:36:33.985Z,5.03
2023-01-13T20:39:02.399Z,5.07
2023-01-13T20:41:49.562Z,5.08
2023-01-13T20:44:17.299Z,5.02
2023-01-13T20:46:45.242Z,4.97
2023-01-13T20:49:14.995Z,4.97
2023-01-13T20:51:43.028Z,5.00
2023-01-13T20:54:10.841Z,4.91
2023-01-13T20:56:38.523Z,4.96
2023-01-13T20:59:06.344Z,5.03
2023-01-13T21:01:34.895Z,5.06
2023-01-13T21:04:02.559Z,4.99
2023-01-13T21:06:30.131Z,5.01
2023-01-13T21:08:57.940Z,4.98
2023-01-13T21:11:46.267Z,4.96
2023-01-13T21:14:35.561Z,4.96
2023-01-13T21:17:04.043Z,4.97
2023-01-13T21:19:32.126Z,5.02
2023-01-13T21:21:59.701Z,5.02
2023-01-13T21:24:27.378Z,5.09
2023-01-13T21:27:01.554Z,5.13
2023-01-13T21:29:29.115Z,5.23
2023-01-13T21:31:57.180Z,5.12
2023-01-13T21:34:24.682Z,5.08
2023-01-13T21:36:52.195Z,4.99
2023-01-13T21:39:20.088Z,5.06
2023-01-13T21:42:06.673Z,5.07
2023-01-13T21:44:53.357Z,5.14
2023-01-13T21:47:39.265Z,5.18
2023-01-13T21:50:10.955Z,5.22
2023-01-13T21:52:39.323Z,5.21
2023-01-13T21:55:28.946Z,5.24
2023-01-13T21:57:58.850Z,5.24
2023-01-13T22:00:31.482Z,5.17
2023-01-13T22:03:00.220Z,5.24
2023-01-13T22:05:27.761Z,5.23
2023-01-13T22:07:55.244Z,5.25
2023-01-13T22:10:26.160Z,5.35
2023-01-13T22:12:56.407Z,5.34
2023-01-13T22:15:27.256Z,5.34
2023-01-13T22:17:55.672Z,5.34
2023-01-13T22:20:23.552Z,5.39
2023-01-13T22:22:51.364Z,5.54
2023-01-13T22:25:20.279Z,5.55
2023-01-13T22:27:48.507Z,5.56
2023-01-13T22:30:18.923Z,5.55
2023-01-13T22:32:46.478Z,5.49
2023-01-13T22:35:15.639Z,5.49
2023-01-13T22:37:43.652Z,5.58
2023-01-13T22:40:12.231Z,5.65
2023-01-13T22:42:41.528Z,5.71
2023-01-13T22:45:13.980Z,5.70
2023-01-13T22:47:41.895Z,5.67
2023-01-13T22:50:10.307Z,5.69
2023-01-13T22:52:37.815Z,5.67
2023-01-13T22:55:06.971Z,5.71
2023-01-13T22:57:46.723Z,5.73
2023-01-13T23:00:18.943Z,5.74
2023-01-13T23:02:46.980Z,5.75
2023-01-13T23:05:14.690Z,5.73
2023-01-13T23:07:42.185Z,5.73
2023-01-13T23:10:10.556Z,5.75
2023-01-13T23:12:38.274Z,5.75
2023-01-13T23:15:06.285Z,5.63
2023-01-13T23:17:34.193Z,5.62
2023-01-13T23:20:01.926Z,5.68
2023-01-13T23:22:29.551Z,5.63
2023-01-13T23:24:57.331Z,5.58
2023-01-13T23:27:24.798Z,5.59
2023-01-13T23:29:52.284Z,5.49
2023-01-13T23:32:20.080Z,5.40
2023-01-13T23:34:47.621Z,5.34
2023-01-13T23:37:15.141Z,5.39
2023-01-13T23:39:42.952Z,5.47
2023-01-13T23:42:10.499Z,5.51
2023-01-13T23:44:38.070Z,5.56
2023-01-13T23:47:05.946Z,5.64
2023-01-13T23:49:33.501Z,5.66
2023-01-13T23:52:01.049Z,5.71
2023-01-13T23:54:28.813Z,5.72
2023-01-13T23:56:57.406Z,5.74
2023-01-13T23:59:25.005Z,5.78
